Arlington, NC

4:39 AM EDT on August 26, 2016 (GMT -0400)
North Oak Ridge Community | | Change Station

Elev 1129 ft 36.21 °N, 80.75 °W | Updated 60 seconds ago

Mist
Mist
72.5 °F
Feels Like 72.5 °F
N
0.0
Wind Variable Wind from South

Today
High -- | Low -- °F
--% Chance of Precip.
Yesterday
High -- | Low -- °F
Precip. -- in
Pressure 30.18 in
Visibility 1.2 miles
Clouds
Dew Point 70 °F
Humidity 93%
Rainfall 0.00 in
Snow Depth Not available.
6:50 AM 7:58 PM
Last Quarter, 37% visible
METAR KUKF 260820Z AUTO 00000KT 1 1/4SM BR VV007 21/21 A3018 RMK AO2
Pressure 30.18 in
Visibility 1.2 miles
Clouds
Dew Point 70 °F
Humidity 93%
Rainfall 0.00 in
Snow Depth Not available.
6:50 AM 7:58 PM
Last Quarter, 37% visible
METAR KUKF 260820Z AUTO 00000KT 1 1/4SM BR VV007 21/21 A3018 RMK AO2

10-Day Weather Forecast

Almanac

Astronomy

Aug. 26, 2016 Rise Set
Actual Time
Civil Twilight
Nautical Twilight
Astronomical Twilight
Moon
Length of Visible Light
Length of Day
Tomorrow will be .
, % of the Moon is Illuminated

Today's Extremes

State Highs State Lows

Community

WunderPhotos

Upload Photos

1,935,062 photos uploaded!

WunderBlog® & News

Nearby

Air Quality

  Air Quality AQ Index Pollutant
Not available.

Snow Depth

Station Depth Elevation

Earthquake Activity

City Distance Mag. Time & Date
Minimum magnitude displayed is 2.5.

Coastal Water Temperatures

Place Temperature

Stations

Nearby Weather Stations

Station Location Temp. Windchill Dew Point Humidity Wind Precip. Elev Updated Type
                   

Watches & Warnings

There are currently no watches in effect.